Time;durP1;ratioP1;P1;durP2;ratioP2;P2;SDS_P1;SDS_P2;PMS_P1;PMS_P2;Temp;Humidity;BMP_temperature;BMP_pressure;BME280_temperature;BME280_humidity;BME280_pressure;Samples;Min_cycle;Max_cycle;Signal;HPM_P1;HPM_P2
2024/02/23 00:00:40;;;;;;;0.10;0.10;;;;;;;;;;5014534;28;20042;-84
2024/02/23 00:03:08;;;;;;;0.10;0.10;;;;;;;;;;5014414;28;20078;-85
2024/02/23 00:05:34;;;;;;;0.10;0.10;;;;;;;;;;5015327;28;20079;-84
2024/02/23 00:08:00;;;;;;;0.10;0.10;;;;;;;;;;5018058;28;20148;-84
2024/02/23 00:10:26;;;;;;;0.10;0.10;;;;;;;;;;5018226;28;20504;-85
2024/02/23 00:12:52;;;;;;;0.10;0.10;;;;;;;;;;5018412;28;20427;-85
2024/02/23 00:15:18;;;;;;;0.10;0.10;;;;;;;;;;5018374;28;20037;-85
2024/02/23 00:17:44;;;;;;;0.10;0.10;;;;;;;;;;5018229;28;20076;-85
2024/02/23 00:20:11;;;;;;;0.10;0.10;;;;;;;;;;5018251;28;20057;-85
2024/02/23 00:22:38;;;;;;;0.10;0.10;;;;;;;;;;5001936;28;20041;-84
2024/02/23 00:25:04;;;;;;;0.10;0.10;;;;;;;;;;5017681;28;20045;-85
2024/02/23 00:27:30;;;;;;;0.10;0.10;;;;;;;;;;5018209;28;20041;-85
2024/02/23 00:29:56;;;;;;;0.10;0.10;;;;;;;;;;5017962;28;20041;-84
2024/02/23 00:32:22;;;;;;;0.10;0.10;;;;;;;;;;5017746;28;20064;-85
2024/02/23 00:34:48;;;;;;;0.10;0.10;;;;;;;;;;5017642;28;20049;-84
2024/02/23 00:37:15;;;;;;;0.10;0.10;;;;;;;;;;5017610;28;20041;-83
2024/02/23 00:39:41;;;;;;;0.10;0.10;;;;;;;;;;5018023;28;20092;-84
2024/02/23 00:42:07;;;;;;;0.10;0.10;;;;;;;;;;5017755;28;20541;-83
2024/02/23 00:44:33;;;;;;;0.10;0.10;;;;;;;;;;5000994;28;20128;-85
2024/02/23 00:47:01;;;;;;;0.10;0.10;;;;;;;;;;5017400;28;20038;-85
2024/02/23 00:49:30;;;;;;;0.10;0.10;;;;;;;;;;5017320;28;20045;-85
2024/02/23 00:51:56;;;;;;;0.10;0.10;;;;;;;;;;5017235;28;20124;-84
2024/02/23 00:54:22;;;;;;;0.10;0.10;;;;;;;;;;5001085;28;20179;-84
2024/02/23 00:56:49;;;;;;;0.10;0.10;;;;;;;;;;5017308;28;20041;-84
2024/02/23 00:59:15;;;;;;;0.10;0.10;;;;;;;;;;5017457;28;20228;-84
2024/02/23 01:01:41;;;;;;;0.10;0.10;;;;;;;;;;5017168;28;20041;-84
2024/02/23 01:04:07;;;;;;;0.10;0.10;;;;;;;;;;5017300;28;20045;-84
2024/02/23 01:06:33;;;;;;;0.20;0.20;;;;;;;;;;5017352;28;20095;-84
2024/02/23 01:08:59;;;;;;;0.10;0.10;;;;;;;;;;5017077;28;20469;-84
2024/02/23 01:11:25;;;;;;;0.10;0.10;;;;;;;;;;5016979;28;20079;-85
2024/02/23 01:13:51;;;;;;;0.10;0.10;;;;;;;;;;5016973;28;20036;-85
2024/02/23 01:16:17;;;;;;;0.10;0.10;;;;;;;;;;5016602;28;20069;-84
2024/02/23 01:18:43;;;;;;;0.10;0.10;;;;;;;;;;5017049;28;20123;-84
2024/02/23 01:21:09;;;;;;;0.10;0.10;;;;;;;;;;5000807;28;20042;-84
2024/02/23 01:23:35;;;;;;;0.10;0.10;;;;;;;;;;5016852;28;20219;-84
2024/02/23 01:26:02;;;;;;;0.10;0.10;;;;;;;;;;5016753;28;20124;-83
2024/02/23 01:28:28;;;;;;;0.10;0.10;;;;;;;;;;5016971;28;20443;-83
2024/02/23 01:30:54;;;;;;;0.10;0.10;;;;;;;;;;5016445;28;20052;-83
2024/02/23 01:33:21;;;;;;;0.10;0.10;;;;;;;;;;5016686;28;20521;-83
2024/02/23 01:35:47;;;;;;;0.10;0.10;;;;;;;;;;5016604;28;20160;-84
2024/02/23 01:38:18;;;;;;;0.10;0.10;;;;;;;;;;5016678;28;20041;-84
2024/02/23 01:40:45;;;;;;;0.10;0.10;;;;;;;;;;5016625;28;20053;-83
2024/02/23 01:43:11;;;;;;;0.10;0.10;;;;;;;;;;5016577;28;20049;-83
2024/02/23 01:45:37;;;;;;;0.10;0.10;;;;;;;;;;4999896;28;20111;-84
2024/02/23 01:48:03;;;;;;;0.10;0.10;;;;;;;;;;5016297;28;20492;-84
2024/02/23 01:50:32;;;;;;;0.10;0.10;;;;;;;;;;5016778;28;20552;-84
2024/02/23 01:53:08;;;;;;;0.10;0.10;;;;;;;;;;5015684;28;20067;-83
2024/02/23 01:55:34;;;;;;;0.10;0.10;;;;;;;;;;5016043;28;20053;-84
2024/02/23 01:58:00;;;;;;;0.10;0.10;;;;;;;;;;5016231;28;20366;-84
2024/02/23 02:00:26;;;;;;;0.10;0.10;;;;;;;;;;5016338;28;20041;-84
2024/02/23 02:02:52;;;;;;;0.10;0.10;;;;;;;;;;5016219;28;20049;-84
2024/02/23 02:05:18;;;;;;;0.10;0.10;;;;;;;;;;4999599;28;20038;-84
2024/02/23 02:07:45;;;;;;;0.10;0.10;;;;;;;;;;5016025;28;20087;-84
2024/02/23 02:10:11;;;;;;;0.10;0.10;;;;;;;;;;5015858;28;20124;-83
2024/02/23 02:12:37;;;;;;;0.10;0.10;;;;;;;;;;5015724;28;20041;-83
2024/02/23 02:15:03;;;;;;;0.10;0.10;;;;;;;;;;5015847;28;20041;-83
2024/02/23 02:17:29;;;;;;;0.10;0.10;;;;;;;;;;5015923;28;20056;-84
2024/02/23 02:19:56;;;;;;;0.10;0.10;;;;;;;;;;5015597;28;20045;-84
2024/02/23 02:22:22;;;;;;;0.10;0.10;;;;;;;;;;5015629;28;20583;-84
2024/02/23 02:24:48;;;;;;;0.10;0.10;;;;;;;;;;5015878;28;20049;-84
2024/02/23 02:27:14;;;;;;;0.65;0.45;;;;;;;;;;5015887;28;20045;-84
2024/02/23 02:29:40;;;;;;;0.10;0.10;;;;;;;;;;5014936;28;20037;-84
2024/02/23 02:32:07;;;;;;;0.10;0.10;;;;;;;;;;5015473;28;20044;-83
2024/02/23 02:34:33;;;;;;;0.10;0.10;;;;;;;;;;5015762;28;20045;-84
2024/02/23 02:37:00;;;;;;;0.10;0.10;;;;;;;;;;5015523;28;20052;-84
2024/02/23 02:39:26;;;;;;;0.20;0.20;;;;;;;;;;5015403;28;20124;-84
2024/02/23 02:41:52;;;;;;;0.10;0.10;;;;;;;;;;5015133;28;20056;-84
2024/02/23 02:44:18;;;;;;;0.10;0.10;;;;;;;;;;5015552;28;20132;-83
2024/02/23 02:46:46;;;;;;;0.10;0.10;;;;;;;;;;5015267;28;20045;-83
2024/02/23 02:49:12;;;;;;;0.20;0.20;;;;;;;;;;5015361;28;20095;-84
2024/02/23 02:51:38;;;;;;;0.20;0.20;;;;;;;;;;5015104;28;20120;-84
2024/02/23 02:54:05;;;;;;;0.10;0.10;;;;;;;;;;5015017;28;20477;-83
2024/02/23 02:56:31;;;;;;;0.10;0.10;;;;;;;;;;5014806;28;20053;-83
2024/02/23 02:58:57;;;;;;;0.10;0.10;;;;;;;;;;5015004;28;20425;-83
2024/02/23 03:01:23;;;;;;;0.10;0.10;;;;;;;;;;5015003;28;20048;-83
2024/02/23 03:03:49;;;;;;;0.10;0.10;;;;;;;;;;5015041;28;20044;-84
2024/02/23 03:06:15;;;;;;;0.10;0.10;;;;;;;;;;5014927;28;20128;-84
2024/02/23 03:08:44;;;;;;;0.10;0.10;;;;;;;;;;5014867;28;20033;-84
2024/02/23 03:11:12;;;;;;;0.10;0.10;;;;;;;;;;5014951;28;20038;-83
2024/02/23 03:13:38;;;;;;;0.10;0.10;;;;;;;;;;5015042;28;20097;-83
2024/02/23 03:16:04;;;;;;;0.10;0.10;;;;;;;;;;5015117;28;20132;-85
2024/02/23 03:18:30;;;;;;;0.10;0.10;;;;;;;;;;5014698;28;20041;-84
2024/02/23 03:20:56;;;;;;;0.20;0.20;;;;;;;;;;5014574;28;20045;-84
2024/02/23 03:23:23;;;;;;;0.17;0.17;;;;;;;;;;4998507;28;20046;-84
2024/02/23 03:25:49;;;;;;;0.10;0.10;;;;;;;;;;5014895;28;20436;-85
2024/02/23 03:28:15;;;;;;;0.10;0.10;;;;;;;;;;5014595;28;20033;-83
2024/02/23 03:30:41;;;;;;;0.10;0.10;;;;;;;;;;5014595;28;20049;-84
2024/02/23 03:33:07;;;;;;;0.10;0.10;;;;;;;;;;5014732;28;20120;-84
2024/02/23 03:35:33;;;;;;;0.10;0.10;;;;;;;;;;5014389;28;20485;-85
2024/02/23 03:37:59;;;;;;;0.10;0.10;;;;;;;;;;5014585;28;20453;-84
2024/02/23 03:40:25;;;;;;;0.10;0.10;;;;;;;;;;5014361;28;20469;-84
2024/02/23 03:42:52;;;;;;;0.10;0.10;;;;;;;;;;4998157;28;20045;-84
2024/02/23 03:45:18;;;;;;;0.40;0.40;;;;;;;;;;5014275;28;20041;-85
2024/02/23 03:47:44;;;;;;;0.10;0.10;;;;;;;;;;5014642;28;20662;-84
2024/02/23 03:50:10;;;;;;;0.10;0.10;;;;;;;;;;5014273;28;20045;-84
2024/02/23 03:52:36;;;;;;;0.10;0.10;;;;;;;;;;4997828;28;20041;-84
2024/02/23 03:55:03;;;;;;;0.10;0.10;;;;;;;;;;5014345;28;20132;-84
2024/02/23 03:57:29;;;;;;;0.10;0.10;;;;;;;;;;5014111;28;20045;-85
2024/02/23 03:59:55;;;;;;;0.10;0.10;;;;;;;;;;5014031;28;20041;-84
2024/02/23 04:02:21;;;;;;;0.10;0.10;;;;;;;;;;5014415;28;20045;-84
2024/02/23 04:04:48;;;;;;;0.10;0.10;;;;;;;;;;5014217;28;20404;-84
2024/02/23 04:07:14;;;;;;;0.10;0.10;;;;;;;;;;4997613;28;20137;-84
2024/02/23 04:09:40;;;;;;;5.22;0.35;;;;;;;;;;5014151;28;20044;-84
2024/02/23 04:12:07;;;;;;;0.10;0.10;;;;;;;;;;5014038;28;20042;-88
2024/02/23 04:14:36;;;;;;;0.10;0.10;;;;;;;;;;5014349;28;20092;-87
2024/02/23 04:17:05;;;;;;;0.10;0.10;;;;;;;;;;5014130;28;20042;-85
2024/02/23 04:19:31;;;;;;;0.10;0.10;;;;;;;;;;5014523;28;20081;-84
2024/02/23 04:21:57;;;;;;;0.10;0.10;;;;;;;;;;5014333;28;20481;-84
2024/02/23 04:24:23;;;;;;;0.10;0.10;;;;;;;;;;5014183;28;20037;-84
2024/02/23 04:26:49;;;;;;;0.10;0.10;;;;;;;;;;5014384;28;20100;-84
2024/02/23 04:29:15;;;;;;;0.10;0.10;;;;;;;;;;5014370;28;20094;-84
2024/02/23 04:31:41;;;;;;;0.10;0.10;;;;;;;;;;5014072;28;20163;-85
2024/02/23 04:34:08;;;;;;;0.10;0.10;;;;;;;;;;5014378;28;20405;-84
2024/02/23 04:36:34;;;;;;;0.10;0.10;;;;;;;;;;5014398;28;20073;-84
2024/02/23 04:39:00;;;;;;;0.10;0.10;;;;;;;;;;5014379;28;20041;-85
2024/02/23 04:41:26;;;;;;;0.10;0.10;;;;;;;;;;5014523;28;20045;-85
2024/02/23 04:43:58;;;;;;;0.10;0.10;;;;;;;;;;5013987;28;20054;-84
2024/02/23 04:46:24;;;;;;;0.10;0.10;;;;;;;;;;5014262;28;20081;-84
2024/02/23 04:48:50;;;;;;;0.10;0.10;;;;;;;;;;5013913;28;20049;-84
2024/02/23 04:51:16;;;;;;;0.10;0.10;;;;;;;;;;5014528;28;20095;-83
2024/02/23 04:53:42;;;;;;;0.10;0.10;;;;;;;;;;5017623;28;20408;-84
2024/02/23 04:56:09;;;;;;;0.10;0.10;;;;;;;;;;5017374;28;20081;-84
2024/02/23 04:58:36;;;;;;;0.10;0.10;;;;;;;;;;5017340;28;20045;-84
2024/02/23 05:01:03;;;;;;;0.10;0.10;;;;;;;;;;5000942;28;20197;-84
2024/02/23 05:03:29;;;;;;;0.10;0.10;;;;;;;;;;5017423;28;20131;-84
2024/02/23 05:05:55;;;;;;;0.20;0.20;;;;;;;;;;5017230;28;20041;-84
2024/02/23 05:08:21;;;;;;;0.10;0.10;;;;;;;;;;5016984;28;20041;-83
2024/02/23 05:10:47;;;;;;;0.10;0.10;;;;;;;;;;5016981;28;20132;-85
2024/02/23 05:13:13;;;;;;;0.10;0.10;;;;;;;;;;5017295;28;20053;-84
2024/02/23 05:15:39;;;;;;;0.60;0.60;;;;;;;;;;5016926;28;20056;-84
2024/02/23 05:18:06;;;;;;;0.10;0.10;;;;;;;;;;5000733;28;20049;-84
2024/02/23 05:20:32;;;;;;;0.10;0.10;;;;;;;;;;5017116;28;20045;-84
2024/02/23 05:22:58;;;;;;;0.43;0.43;;;;;;;;;;5017020;28;20090;-84
2024/02/23 05:25:27;;;;;;;0.10;0.10;;;;;;;;;;5016917;28;20049;-84
2024/02/23 05:27:54;;;;;;;0.10;0.10;;;;;;;;;;5017040;28;20036;-85
2024/02/23 05:30:20;;;;;;;0.10;0.10;;;;;;;;;;5033160;28;20100;-84
2024/02/23 05:32:46;;;;;;;0.10;0.10;;;;;;;;;;5000400;28;20037;-84
2024/02/23 05:35:12;;;;;;;0.10;0.10;;;;;;;;;;5016712;28;20051;-85
2024/02/23 05:37:39;;;;;;;0.10;0.10;;;;;;;;;;5016750;28;20046;-84
2024/02/23 05:40:07;;;;;;;0.10;0.10;;;;;;;;;;5016640;28;20425;-85
2024/02/23 05:42:33;;;;;;;0.10;0.10;;;;;;;;;;5016732;28;20041;-84
2024/02/23 05:44:59;;;;;;;0.10;0.10;;;;;;;;;;5016376;28;20180;-85
2024/02/23 05:47:25;;;;;;;0.10;0.10;;;;;;;;;;5016449;28;20049;-84
2024/02/23 05:49:51;;;;;;;0.20;0.20;;;;;;;;;;5016470;28;20487;-84
2024/02/23 05:52:17;;;;;;;0.10;0.10;;;;;;;;;;5016351;28;20047;-84
2024/02/23 05:54:44;;;;;;;0.20;0.20;;;;;;;;;;5015858;28;20054;-84
2024/02/23 05:57:10;;;;;;;0.10;0.10;;;;;;;;;;5000376;28;20476;-83
2024/02/23 05:59:36;;;;;;;0.10;0.10;;;;;;;;;;5016196;28;20041;-84
2024/02/23 06:02:02;;;;;;;0.10;0.10;;;;;;;;;;5016266;28;20129;-84
2024/02/23 06:04:28;;;;;;;0.20;0.20;;;;;;;;;;5015332;28;20476;-84
2024/02/23 06:06:54;;;;;;;0.20;0.20;;;;;;;;;;5016091;28;20046;-83
2024/02/23 06:09:21;;;;;;;0.20;0.20;;;;;;;;;;5016150;28;20041;-84
2024/02/23 06:11:47;;;;;;;0.10;0.10;;;;;;;;;;5015831;28;20038;-84
2024/02/23 06:14:13;;;;;;;0.20;0.20;;;;;;;;;;5015918;28;20052;-84
2024/02/23 06:16:40;;;;;;;0.10;0.10;;;;;;;;;;4999503;28;20037;-84
2024/02/23 06:19:06;;;;;;;0.30;0.30;;;;;;;;;;5015823;28;20145;-84
2024/02/23 06:21:32;;;;;;;0.10;0.10;;;;;;;;;;4999624;28;20034;-84
2024/02/23 06:23:58;;;;;;;0.10;0.10;;;;;;;;;;4999661;28;20427;-84
2024/02/23 06:26:24;;;;;;;0.10;0.10;;;;;;;;;;5015691;28;20037;-84
2024/02/23 06:28:51;;;;;;;0.20;0.20;;;;;;;;;;5015457;28;20037;-84
2024/02/23 06:31:17;;;;;;;0.20;0.20;;;;;;;;;;5015555;28;20049;-84
2024/02/23 06:33:43;;;;;;;0.35;0.35;;;;;;;;;;5015661;28;20098;-85
2024/02/23 06:36:10;;;;;;;0.30;0.30;;;;;;;;;;5015492;28;20500;-84
2024/02/23 06:38:36;;;;;;;0.20;0.20;;;;;;;;;;5015521;28;20045;-84
2024/02/23 06:41:02;;;;;;;0.10;0.10;;;;;;;;;;5015439;28;20037;-84
2024/02/23 06:43:28;;;;;;;0.20;0.20;;;;;;;;;;5015814;28;20088;-85
2024/02/23 06:45:54;;;;;;;0.10;0.10;;;;;;;;;;5015226;28;20481;-84
2024/02/23 06:48:20;;;;;;;0.15;0.15;;;;;;;;;;5015339;28;20037;-84
2024/02/23 06:50:46;;;;;;;0.20;0.20;;;;;;;;;;5015206;28;20156;-85
2024/02/23 06:53:12;;;;;;;0.20;0.20;;;;;;;;;;5015348;28;20041;-84
2024/02/23 06:55:39;;;;;;;0.20;0.20;;;;;;;;;;5015019;28;20485;-88
2024/02/23 06:58:07;;;;;;;0.13;0.13;;;;;;;;;;5015385;28;20050;-87
2024/02/23 07:00:34;;;;;;;0.20;0.20;;;;;;;;;;5015598;28;20056;-89
2024/02/23 07:03:03;;;;;;;0.10;0.10;;;;;;;;;;5015904;28;20040;-88
2024/02/23 07:05:30;;;;;;;0.38;0.38;;;;;;;;;;5015616;28;20049;-89
2024/02/23 07:07:57;;;;;;;0.20;0.15;;;;;;;;;;5015381;28;20033;-89
2024/02/23 07:10:25;;;;;;;1.85;1.75;;;;;;;;;;5015508;28;20087;-87
2024/02/23 07:12:53;;;;;;;0.17;0.17;;;;;;;;;;4999212;28;20045;-86
2024/02/23 07:15:19;;;;;;;0.15;0.15;;;;;;;;;;5014840;28;20045;-88
2024/02/23 07:17:46;;;;;;;0.10;0.10;;;;;;;;;;5015061;28;20048;-84
2024/02/23 07:20:13;;;;;;;0.10;0.10;;;;;;;;;;5015198;28;20045;-83
2024/02/23 07:22:39;;;;;;;0.30;0.30;;;;;;;;;;5014851;28;20051;-84
2024/02/23 07:25:05;;;;;;;0.10;0.10;;;;;;;;;;5015018;28;20042;-84
2024/02/23 07:27:32;;;;;;;0.28;0.28;;;;;;;;;;5014892;28;20038;-85
2024/02/23 07:29:58;;;;;;;0.10;0.10;;;;;;;;;;5014606;28;20128;-84
2024/02/23 07:32:24;;;;;;;0.10;0.10;;;;;;;;;;4998466;28;20076;-84
2024/02/23 07:34:50;;;;;;;0.10;0.10;;;;;;;;;;5014858;28;20090;-84
2024/02/23 07:37:16;;;;;;;0.10;0.10;;;;;;;;;;5014614;28;20045;-83
2024/02/23 07:39:42;;;;;;;0.10;0.10;;;;;;;;;;5014414;28;20100;-84
2024/02/23 07:42:10;;;;;;;0.10;0.10;;;;;;;;;;5014733;28;20424;-85
2024/02/23 07:44:37;;;;;;;0.10;0.10;;;;;;;;;;5014418;28;20048;-83
2024/02/23 07:47:03;;;;;;;0.10;0.10;;;;;;;;;;5014836;28;20076;-83
2024/02/23 07:49:30;;;;;;;0.10;0.10;;;;;;;;;;5014463;28;20080;-83
2024/02/23 07:51:56;;;;;;;0.13;0.13;;;;;;;;;;4998312;28;20169;-82
2024/02/23 07:54:22;;;;;;;0.10;0.10;;;;;;;;;;5013380;28;20091;-84
2024/02/23 07:56:48;;;;;;;0.22;0.22;;;;;;;;;;4997699;28;20064;-83
2024/02/23 07:59:14;;;;;;;0.20;0.20;;;;;;;;;;5014443;28;20191;-83
2024/02/23 08:01:40;;;;;;;0.22;0.22;;;;;;;;;;5013956;28;20042;-83
2024/02/23 08:04:06;;;;;;;0.10;0.10;;;;;;;;;;5014235;28;20492;-83
2024/02/23 08:06:32;;;;;;;0.10;0.10;;;;;;;;;;5013801;28;20520;-83
2024/02/23 08:08:58;;;;;;;0.20;0.20;;;;;;;;;;5014331;28;20060;-82
2024/02/23 08:11:25;;;;;;;0.10;0.10;;;;;;;;;;5014225;28;20513;-83
2024/02/23 08:13:51;;;;;;;0.10;0.10;;;;;;;;;;5014110;28;20048;-83
2024/02/23 08:16:17;;;;;;;0.10;0.10;;;;;;;;;;5013943;28;20128;-83
2024/02/23 08:18:43;;;;;;;0.10;0.10;;;;;;;;;;5014043;28;20041;-83
2024/02/23 08:21:10;;;;;;;0.28;0.28;;;;;;;;;;5013917;28;20041;-84
2024/02/23 08:23:36;;;;;;;0.10;0.10;;;;;;;;;;5014028;28;20045;-83
2024/02/23 08:26:02;;;;;;;0.10;0.10;;;;;;;;;;5014246;28;20084;-82
2024/02/23 08:28:29;;;;;;;0.10;0.10;;;;;;;;;;5017860;28;20026;-83
2024/02/23 08:30:55;;;;;;;0.10;0.10;;;;;;;;;;5017652;28;20055;-83
2024/02/23 08:33:21;;;;;;;0.10;0.10;;;;;;;;;;5001572;28;20187;-85
2024/02/23 08:35:48;;;;;;;0.20;0.20;;;;;;;;;;5017654;28;20504;-83
2024/02/23 08:38:14;;;;;;;0.30;0.30;;;;;;;;;;5017759;28;20179;-83
2024/02/23 08:40:41;;;;;;;0.10;0.10;;;;;;;;;;5017420;28;20045;-85
2024/02/23 08:43:08;;;;;;;0.10;0.10;;;;;;;;;;5017785;28;20041;-85
2024/02/23 08:45:34;;;;;;;0.10;0.10;;;;;;;;;;5017414;28;20050;-84
2024/02/23 08:48:00;;;;;;;0.10;0.10;;;;;;;;;;5017389;28;20044;-84
2024/02/23 08:50:26;;;;;;;0.10;0.10;;;;;;;;;;5017187;28;20038;-85
2024/02/23 08:52:52;;;;;;;0.10;0.10;;;;;;;;;;5017314;28;20485;-84
2024/02/23 08:55:18;;;;;;;0.10;0.10;;;;;;;;;;5016945;28;20115;-85
2024/02/23 08:57:44;;;;;;;0.10;0.10;;;;;;;;;;5017204;28;20045;-84
2024/02/23 09:00:11;;;;;;;0.10;0.10;;;;;;;;;;5017127;28;20052;-83
2024/02/23 09:02:38;;;;;;;0.10;0.10;;;;;;;;;;5001019;28;20042;-83
2024/02/23 09:05:04;;;;;;;0.10;0.10;;;;;;;;;;5016992;28;20079;-84
2024/02/23 09:07:30;;;;;;;0.10;0.10;;;;;;;;;;5017001;28;20033;-84
2024/02/23 09:09:57;;;;;;;0.10;0.10;;;;;;;;;;5017357;28;20037;-86
2024/02/23 09:12:23;;;;;;;0.10;0.10;;;;;;;;;;5017507;28;20041;-85
2024/02/23 09:14:49;;;;;;;0.20;0.20;;;;;;;;;;5016335;28;20046;-84
2024/02/23 09:17:15;;;;;;;0.10;0.10;;;;;;;;;;4997456;28;20124;-85
2024/02/23 09:19:41;;;;;;;0.10;0.10;;;;;;;;;;5013315;28;20041;-85
2024/02/23 09:22:07;;;;;;;0.10;0.10;;;;;;;;;;4997250;28;20037;-84
2024/02/23 09:24:33;;;;;;;0.20;0.20;;;;;;;;;;4996722;28;20034;-86
2024/02/23 09:26:59;;;;;;;0.10;0.10;;;;;;;;;;5012040;28;20043;-86
2024/02/23 09:29:25;;;;;;;0.10;0.10;;;;;;;;;;5015761;28;20168;-86
2024/02/23 09:31:52;;;;;;;0.20;0.20;;;;;;;;;;5016007;28;20512;-87
2024/02/23 09:34:19;;;;;;;0.10;0.10;;;;;;;;;;5015765;28;20038;-87
2024/02/23 09:36:46;;;;;;;0.10;0.10;;;;;;;;;;4999908;28;20041;-86
2024/02/23 09:39:12;;;;;;;0.10;0.10;;;;;;;;;;5015865;28;20112;-85
2024/02/23 09:41:38;;;;;;;0.10;0.10;;;;;;;;;;5015479;28;20038;-85
2024/02/23 09:44:07;;;;;;;0.10;0.10;;;;;;;;;;4999727;28;20072;-87
2024/02/23 09:46:36;;;;;;;0.10;0.10;;;;;;;;;;5015478;28;20179;-84
2024/02/23 09:49:03;;;;;;;0.20;0.20;;;;;;;;;;5000512;28;20102;-85
2024/02/23 09:51:29;;;;;;;0.10;0.10;;;;;;;;;;5000366;28;20064;-84
2024/02/23 09:53:55;;;;;;;0.10;0.10;;;;;;;;;;5016345;28;20120;-84
2024/02/23 09:56:21;;;;;;;0.10;0.10;;;;;;;;;;4999993;28;20111;-85
2024/02/23 09:58:48;;;;;;;0.10;0.10;;;;;;;;;;4999862;28;20046;-84
2024/02/23 10:01:14;;;;;;;0.10;0.10;;;;;;;;;;4999773;28;20130;-85
2024/02/23 10:03:40;;;;;;;0.10;0.10;;;;;;;;;;5000072;28;20073;-84
2024/02/23 10:06:06;;;;;;;0.20;0.20;;;;;;;;;;4999868;28;20104;-84
2024/02/23 10:08:32;;;;;;;0.10;0.10;;;;;;;;;;5000569;28;20037;-86
2024/02/23 10:10:58;;;;;;;0.10;0.10;;;;;;;;;;5000349;28;20457;-86
2024/02/23 10:13:25;;;;;;;0.10;0.10;;;;;;;;;;5000150;28;20520;-86
2024/02/23 10:15:54;;;;;;;0.10;0.10;;;;;;;;;;5001464;28;20064;-86
2024/02/23 10:18:20;;;;;;;0.10;0.10;;;;;;;;;;5001368;28;20037;-86
2024/02/23 10:20:47;;;;;;;0.10;0.10;;;;;;;;;;5000162;28;20392;-85
2024/02/23 10:23:13;;;;;;;0.10;0.10;;;;;;;;;;4999816;28;20045;-86
2024/02/23 10:25:39;;;;;;;0.10;0.10;;;;;;;;;;4999567;28;20041;-86
2024/02/23 10:28:06;;;;;;;0.10;0.10;;;;;;;;;;4999450;28;20131;-86
2024/02/23 10:30:32;;;;;;;0.10;0.10;;;;;;;;;;4999229;28;20033;-86
2024/02/23 10:32:58;;;;;;;0.10;0.10;;;;;;;;;;4999601;28;20038;-86
2024/02/23 10:35:25;;;;;;;0.10;0.10;;;;;;;;;;4999107;28;20132;-86
2024/02/23 10:37:53;;;;;;;0.10;0.10;;;;;;;;;;4998517;28;20049;-85
2024/02/23 10:40:19;;;;;;;0.10;0.10;;;;;;;;;;4999415;28;20072;-85
2024/02/23 10:42:51;;;;;;;0.20;0.20;;;;;;;;;;4998815;28;20122;-85
2024/02/23 10:45:21;;;;;;;0.10;0.10;;;;;;;;;;5015265;28;20038;-85
2024/02/23 10:47:48;;;;;;;0.20;0.20;;;;;;;;;;5015111;28;20042;-85
2024/02/23 10:50:15;;;;;;;0.10;0.10;;;;;;;;;;5031204;28;20037;-85
2024/02/23 10:52:42;;;;;;;0.15;0.15;;;;;;;;;;5015778;28;20052;-84
2024/02/23 10:55:11;;;;;;;0.10;0.10;;;;;;;;;;5014933;28;20563;-84
2024/02/23 10:57:38;;;;;;;0.68;0.68;;;;;;;;;;5016428;28;20056;-85
2024/02/23 11:00:06;;;;;;;0.10;0.10;;;;;;;;;;5014877;28;20042;-86
2024/02/23 11:02:32;;;;;;;0.35;0.35;;;;;;;;;;5015366;28;20041;-84
2024/02/23 11:04:58;;;;;;;0.10;0.10;;;;;;;;;;5015004;28;20454;-84
2024/02/23 11:07:28;;;;;;;0.10;0.10;;;;;;;;;;5014791;28;20045;-85
2024/02/23 11:09:55;;;;;;;0.10;0.10;;;;;;;;;;5014655;28;20389;-84
2024/02/23 11:12:25;;;;;;;0.10;0.10;;;;;;;;;;4998325;28;20044;-84
2024/02/23 11:14:51;;;;;;;0.20;0.20;;;;;;;;;;5014781;28;20548;-85
2024/02/23 11:17:21;;;;;;;0.50;0.50;;;;;;;;;;5015124;28;20090;-86
2024/02/23 11:19:47;;;;;;;0.75;0.75;;;;;;;;;;5015040;28;20077;-84
2024/02/23 11:22:13;;;;;;;0.10;0.10;;;;;;;;;;5014870;28;20045;-84
2024/02/23 11:24:43;;;;;;;0.10;0.10;;;;;;;;;;5013439;28;20128;-84
2024/02/23 11:27:17;;;;;;;0.10;0.10;;;;;;;;;;5014632;28;20041;-84
2024/02/23 11:29:43;;;;;;;0.10;0.10;;;;;;;;;;5014634;28;20099;-84
2024/02/23 11:32:14;;;;;;;0.10;0.10;;;;;;;;;;5014596;28;20049;-84
2024/02/23 11:34:40;;;;;;;0.10;0.10;;;;;;;;;;5014411;28;20520;-85
2024/02/23 11:37:12;;;;;;;0.10;0.10;;;;;;;;;;4997977;28;20171;-85
2024/02/23 11:39:39;;;;;;;0.10;0.10;;;;;;;;;;5014512;28;20045;-84
2024/02/23 11:42:05;;;;;;;0.10;0.10;;;;;;;;;;5014598;28;20318;-85
2024/02/23 11:44:31;;;;;;;0.20;0.20;;;;;;;;;;5014678;28;20045;-85
2024/02/23 11:46:59;;;;;;;0.10;0.10;;;;;;;;;;5014651;28;20052;-85
2024/02/23 11:49:29;;;;;;;0.10;0.10;;;;;;;;;;5030773;28;20041;-85
2024/02/23 11:51:55;;;;;;;0.10;0.10;;;;;;;;;;5014337;28;20037;-84
2024/02/23 11:54:21;;;;;;;0.10;0.10;;;;;;;;;;5013892;28;20045;-85
2024/02/23 11:56:49;;;;;;;0.20;0.20;;;;;;;;;;5014537;28;20437;-85
2024/02/23 11:59:15;;;;;;;0.10;0.10;;;;;;;;;;5014288;28;20041;-85
2024/02/23 12:01:42;;;;;;;0.20;0.20;;;;;;;;;;5015762;28;20042;-84
2024/02/23 12:04:08;;;;;;;0.13;0.13;;;;;;;;;;5018176;28;20103;-84
2024/02/23 12:06:34;;;;;;;0.10;0.10;;;;;;;;;;5018225;28;20128;-85
2024/02/23 12:09:00;;;;;;;0.10;0.10;;;;;;;;;;5035855;28;20378;-85
2024/02/23 12:11:27;;;;;;;0.10;0.10;;;;;;;;;;5018363;28;20037;-84
2024/02/23 12:13:53;;;;;;;0.10;0.10;;;;;;;;;;5018393;28;20399;-85
2024/02/23 12:16:22;;;;;;;0.25;0.25;;;;;;;;;;5018030;28;20551;-85
2024/02/23 12:18:53;;;;;;;0.10;0.10;;;;;;;;;;5018011;28;20041;-87
2024/02/23 12:21:20;;;;;;;0.20;0.20;;;;;;;;;;5018082;28;20053;-85
2024/02/23 12:23:46;;;;;;;0.10;0.10;;;;;;;;;;5018171;28;20397;-85
2024/02/23 12:26:16;;;;;;;0.10;0.10;;;;;;;;;;5034456;28;20041;-84
2024/02/23 12:28:42;;;;;;;0.10;0.10;;;;;;;;;;5018098;28;20384;-86
2024/02/23 12:31:08;;;;;;;0.10;0.10;;;;;;;;;;5017667;28;20512;-84
2024/02/23 12:33:39;;;;;;;0.22;0.22;;;;;;;;;;5017603;28;20041;-85
2024/02/23 12:36:05;;;;;;;0.10;0.10;;;;;;;;;;5017783;28;20045;-85
2024/02/23 12:38:32;;;;;;;0.10;0.10;;;;;;;;;;5017799;28;20104;-85
2024/02/23 12:40:58;;;;;;;0.20;0.20;;;;;;;;;;5017462;28;20499;-85
2024/02/23 12:43:24;;;;;;;0.10;0.10;;;;;;;;;;5017838;28;20073;-86
2024/02/23 12:45:54;;;;;;;0.10;0.10;;;;;;;;;;5017419;28;20042;-86
2024/02/23 12:48:21;;;;;;;0.10;0.10;;;;;;;;;;5017484;28;20432;-89
2024/02/23 12:50:47;;;;;;;0.10;0.10;;;;;;;;;;5017627;28;20091;-87
2024/02/23 12:53:36;;;;;;;0.10;0.10;;;;;;;;;;5018065;28;20073;-85
2024/02/23 12:56:02;;;;;;;0.20;0.20;;;;;;;;;;5017317;28;20400;-85
2024/02/23 12:58:28;;;;;;;0.10;0.10;;;;;;;;;;5017547;28;20045;-86
2024/02/23 13:00:54;;;;;;;0.10;0.10;;;;;;;;;;5017281;28;20547;-88
2024/02/23 13:03:29;;;;;;;0.63;0.20;;;;;;;;;;5017405;28;20095;-87
2024/02/23 13:05:55;;;;;;;0.10;0.10;;;;;;;;;;5017339;28;20049;-87
2024/02/23 13:08:22;;;;;;;0.10;0.10;;;;;;;;;;5016892;28;20120;-85
2024/02/23 13:10:48;;;;;;;0.10;0.10;;;;;;;;;;5000794;28;20048;-86
2024/02/23 13:13:14;;;;;;;0.10;0.10;;;;;;;;;;5000194;28;20042;-86
2024/02/23 13:15:41;;;;;;;0.10;0.10;;;;;;;;;;5016987;28;20497;-86
2024/02/23 13:18:08;;;;;;;0.10;0.10;;;;;;;;;;5017380;28;20474;-87
2024/02/23 13:20:34;;;;;;;0.10;0.10;;;;;;;;;;5017173;28;20370;-88
2024/02/23 13:23:00;;;;;;;0.10;0.10;;;;;;;;;;5016882;28;20069;-87
2024/02/23 13:25:26;;;;;;;0.20;0.20;;;;;;;;;;5000643;28;20052;-87
2024/02/23 13:27:52;;;;;;;0.10;0.10;;;;;;;;;;5000711;28;20179;-86
2024/02/23 13:30:19;;;;;;;0.10;0.10;;;;;;;;;;5017152;28;20374;-86
2024/02/23 13:32:45;;;;;;;0.10;0.10;;;;;;;;;;5016911;28;20041;-85
2024/02/23 13:35:11;;;;;;;0.10;0.10;;;;;;;;;;5016815;28;20089;-85
2024/02/23 13:37:37;;;;;;;0.10;0.10;;;;;;;;;;5000433;28;20049;-85
2024/02/23 13:40:05;;;;;;;0.10;0.10;;;;;;;;;;5000565;28;20100;-83
2024/02/23 13:42:31;;;;;;;0.10;0.10;;;;;;;;;;5000643;28;20156;-85
2024/02/23 13:44:57;;;;;;;0.10;0.10;;;;;;;;;;5000637;28;20041;-84
2024/02/23 13:47:23;;;;;;;0.10;0.10;;;;;;;;;;5000167;28;20054;-85
2024/02/23 13:49:50;;;;;;;0.10;0.10;;;;;;;;;;5016365;28;20427;-85
2024/02/23 13:52:16;;;;;;;0.10;0.10;;;;;;;;;;5001132;28;20026;-85
2024/02/23 13:54:42;;;;;;;0.10;0.10;;;;;;;;;;4999835;28;20103;-85
2024/02/23 13:57:08;;;;;;;0.10;0.10;;;;;;;;;;5000185;28;20041;-84
2024/02/23 13:59:35;;;;;;;0.10;0.10;;;;;;;;;;4999990;28;20087;-85
2024/02/23 14:02:01;;;;;;;0.10;0.10;;;;;;;;;;5016106;28;20072;-85
2024/02/23 14:04:27;;;;;;;0.10;0.10;;;;;;;;;;5000101;28;20063;-85
2024/02/23 14:06:53;;;;;;;0.10;0.10;;;;;;;;;;4999819;28;20041;-85
2024/02/23 14:09:19;;;;;;;0.10;0.10;;;;;;;;;;4999885;28;20094;-84
2024/02/23 14:11:45;;;;;;;0.10;0.10;;;;;;;;;;4999859;28;20045;-85
2024/02/23 14:14:12;;;;;;;0.10;0.10;;;;;;;;;;4999686;28;20034;-85
2024/02/23 14:16:38;;;;;;;0.30;0.30;;;;;;;;;;4999734;28;20099;-85
2024/02/23 14:19:04;;;;;;;0.20;0.20;;;;;;;;;;4999638;28;20037;-86
2024/02/23 14:21:30;;;;;;;0.10;0.10;;;;;;;;;;4999527;28;20292;-86
2024/02/23 14:23:56;;;;;;;0.10;0.10;;;;;;;;;;4998478;28;20041;-87
2024/02/23 14:26:22;;;;;;;0.17;0.17;;;;;;;;;;5015821;28;20128;-87
2024/02/23 14:28:49;;;;;;;0.50;0.45;;;;;;;;;;5015807;28;20060;-86
2024/02/23 14:31:15;;;;;;;0.20;0.20;;;;;;;;;;4999527;28;20061;-86
2024/02/23 14:33:41;;;;;;;0.20;0.20;;;;;;;;;;4999407;28;20041;-86
2024/02/23 14:36:08;;;;;;;0.10;0.10;;;;;;;;;;5015606;28;20128;-86
2024/02/23 14:38:34;;;;;;;0.10;0.10;;;;;;;;;;4999205;28;20041;-86